createdAt,value
2023-03-06T00:02:00.553Z,34.95
2023-03-06T00:04:27.921Z,34.71
2023-03-06T00:06:54.434Z,34.86
2023-03-06T00:09:22.282Z,33.87
2023-03-06T00:11:50.366Z,32.38
2023-03-06T00:14:17.217Z,33.31
2023-03-06T00:16:45.074Z,31.84
2023-03-06T00:19:12.643Z,32.33
2023-03-06T00:21:39.120Z,32.71
2023-03-06T00:24:05.663Z,34.89
2023-03-06T00:26:32.277Z,37.15
2023-03-06T00:28:58.855Z,38.38
2023-03-06T00:31:27.622Z,36.36
2023-03-06T00:33:57.528Z,36.01
2023-03-06T00:36:23.996Z,35.12
2023-03-06T00:38:50.405Z,36.40
2023-03-06T00:41:19.331Z,35.02
2023-03-06T00:43:45.848Z,33.63
2023-03-06T00:46:12.915Z,34.27
2023-03-06T00:48:41.089Z,34.78
2023-03-06T00:51:07.623Z,34.72
2023-03-06T00:53:36.979Z,35.35
2023-03-06T00:56:03.883Z,34.73
2023-03-06T00:58:35.806Z,34.72
2023-03-06T01:01:05.903Z,33.94
2023-03-06T01:03:35.600Z,33.40
2023-03-06T01:06:02.125Z,32.71
2023-03-06T01:08:32.835Z,32.43
2023-03-06T01:11:01.348Z,32.15
2023-03-06T01:13:30.622Z,32.13
2023-03-06T01:15:57.142Z,33.04
2023-03-06T01:18:23.774Z,31.79
2023-03-06T01:20:52.837Z,32.83
2023-03-06T01:23:19.330Z,32.79
2023-03-06T01:25:48.463Z,32.88
2023-03-06T01:28:16.482Z,32.55
2023-03-06T01:30:43.105Z,34.15
2023-03-06T01:33:09.804Z,35.20
2023-03-06T01:35:37.616Z,35.05
2023-03-06T01:38:05.728Z,35.68
2023-03-06T01:40:32.554Z,35.73
2023-03-06T01:42:59.562Z,34.86
2023-03-06T01:45:27.389Z,35.02
2023-03-06T01:47:54.316Z,35.43
2023-03-06T01:50:21.194Z,34.88
2023-03-06T01:52:50.284Z,35.12
2023-03-06T01:55:17.835Z,35.46
2023-03-06T01:57:46.789Z,36.18
2023-03-06T02:00:14.630Z,35.79
2023-03-06T02:02:41.471Z,36.36
2023-03-06T02:05:08.033Z,35.75
2023-03-06T02:07:34.936Z,35.14
2023-03-06T02:10:01.733Z,34.88
2023-03-06T02:12:28.218Z,35.45
2023-03-06T02:14:54.839Z,36.56
2023-03-06T02:17:21.443Z,35.45
2023-03-06T02:19:49.985Z,35.81
2023-03-06T02:22:16.776Z,35.64
2023-03-06T02:24:43.774Z,35.79
2023-03-06T02:27:13.122Z,34.79
2023-03-06T02:29:39.768Z,34.81
2023-03-06T02:32:08.654Z,34.60
2023-03-06T02:34:36.959Z,33.91
2023-03-06T02:37:03.706Z,34.61
2023-03-06T02:39:30.499Z,33.97
2023-03-06T02:41:57.359Z,32.53
2023-03-06T02:44:24.275Z,31.57
2023-03-06T02:46:53.314Z,31.35
2023-03-06T02:49:26.566Z,30.84
2023-03-06T02:51:54.645Z,31.95
2023-03-06T02:54:21.705Z,31.47
2023-03-06T02:56:49.740Z,31.52
2023-03-06T02:59:16.634Z,31.73
2023-03-06T03:01:43.384Z,31.63
2023-03-06T03:04:09.947Z,32.29
2023-03-06T03:06:36.527Z,32.62
2023-03-06T03:09:08.981Z,33.86
2023-03-06T03:31:30.415Z,34.31
2023-03-06T03:39:31.652Z,35.72
2023-03-06T03:42:11.162Z,34.77
2023-03-06T03:46:19.877Z,33.83
2023-03-06T03:56:51.024Z,34.02
2023-03-06T04:11:37.104Z,33.91
2023-03-06T04:23:37.540Z,34.78
2023-03-06T04:34:21.798Z,32.98
2023-03-06T04:40:00.166Z,32.51
2023-03-06T05:01:51.942Z,30.25
2023-03-06T05:04:19.700Z,29.51
2023-03-06T05:06:52.688Z,30.36
2023-03-06T05:09:26.728Z,30.93
2023-03-06T05:11:53.196Z,30.01
2023-03-06T05:14:22.850Z,30.51
2023-03-06T05:53:20.031Z,31.46
2023-03-06T08:27:21.944Z,32.53
2023-03-06T08:32:32.374Z,33.34
2023-03-06T08:34:58.827Z,32.97
2023-03-06T08:37:28.138Z,33.98
2023-03-06T08:39:54.629Z,35.23
2023-03-06T08:42:21.078Z,34.10
2023-03-06T08:44:47.729Z,34.09
2023-03-06T08:47:14.142Z,34.52
2023-03-06T08:49:42.636Z,35.01
2023-03-06T08:52:10.097Z,34.67
2023-03-06T08:54:39.252Z,33.69
2023-03-06T08:57:05.814Z,35.02
2023-03-06T08:59:32.294Z,34.31
2023-03-06T09:04:49.394Z,34.91
2023-03-06T09:07:15.867Z,35.17
2023-03-06T09:09:42.261Z,34.51
2023-03-06T09:12:23.673Z,35.21
2023-03-06T09:14:56.274Z,35.61
2023-03-06T09:20:15.250Z,37.30
2023-03-06T09:30:59.197Z,40.84
2023-03-06T09:33:26.293Z,40.50
2023-03-06T09:35:53.008Z,38.11
2023-03-06T09:38:19.922Z,35.22
2023-03-06T09:40:46.472Z,35.68
2023-03-06T09:43:13.069Z,34.56
2023-03-06T09:45:39.645Z,31.76
2023-03-06T09:48:08.489Z,30.15
2023-03-06T09:50:35.031Z,30.63
2023-03-06T09:53:01.394Z,31.12
2023-03-06T09:55:27.772Z,31.85
2023-03-06T09:57:54.231Z,32.83
2023-03-06T10:00:20.713Z,32.19
2023-03-06T10:02:48.196Z,34.07
2023-03-06T10:05:17.525Z,32.53
2023-03-06T10:07:46.238Z,30.03
2023-03-06T15:36:54.879Z,13.51
2023-03-06T15:39:21.429Z,11.75
2023-03-06T15:41:48.082Z,11.89
2023-03-06T15:44:15.617Z,11.87
2023-03-06T15:46:42.343Z,12.49
2023-03-06T15:49:08.797Z,11.83
2023-03-06T15:51:35.577Z,12.06
2023-03-06T15:54:12.404Z,11.73
2023-03-06T15:56:39.407Z,11.88
2023-03-06T15:59:05.807Z,12.26
2023-03-06T16:01:32.356Z,11.91
2023-03-06T16:06:42.280Z,12.55
2023-03-06T16:09:16.291Z,12.64
2023-03-06T16:11:44.119Z,12.24
2023-03-06T16:14:10.622Z,13.07
2023-03-06T16:16:38.271Z,12.87
2023-03-06T16:19:06.051Z,12.34
2023-03-06T16:21:34.125Z,12.58
2023-03-06T16:24:00.706Z,12.81
2023-03-06T16:26:27.616Z,13.26
2023-03-06T16:29:02.103Z,13.00
2023-03-06T16:37:03.473Z,13.57
2023-03-06T16:39:34.178Z,13.94
2023-03-06T16:42:07.185Z,13.24
2023-03-06T16:44:38.702Z,13.53
2023-03-06T16:47:09.426Z,13.72
2023-03-06T16:49:36.026Z,13.45
2023-03-06T16:52:02.530Z,13.13
2023-03-06T16:54:33.775Z,13.23
2023-03-06T16:57:08.082Z,13.54
2023-03-06T16:59:35.213Z,13.99
2023-03-06T17:02:01.825Z,13.62
2023-03-06T17:04:28.515Z,14.34
2023-03-06T17:06:59.473Z,14.25
2023-03-06T17:09:28.126Z,14.61
2023-03-06T17:11:58.111Z,14.32
2023-03-06T17:14:33.838Z,14.62
2023-03-06T17:17:18.589Z,14.13
2023-03-06T17:19:46.334Z,15.18
2023-03-06T17:22:16.321Z,14.72
2023-03-06T17:24:43.232Z,14.97
2023-03-06T17:27:10.274Z,14.78
2023-03-06T17:29:37.707Z,13.77
2023-03-06T17:32:06.890Z,14.99
2023-03-06T17:34:33.791Z,15.06
2023-03-06T17:37:00.358Z,15.02
2023-03-06T17:39:26.773Z,14.96
2023-03-06T17:41:53.174Z,14.34
2023-03-06T17:44:23.023Z,14.74
2023-03-06T17:46:49.866Z,14.38
2023-03-06T17:49:16.681Z,14.57
2023-03-06T17:51:47.000Z,14.41
2023-03-06T17:54:13.544Z,14.72
2023-03-06T17:56:40.182Z,15.32
2023-03-06T17:59:06.787Z,15.40
2023-03-06T18:01:33.392Z,17.93
2023-03-06T18:03:59.766Z,20.32
2023-03-06T18:06:26.360Z,16.69
2023-03-06T18:08:56.692Z,17.01
2023-03-06T18:11:23.081Z,15.75
2023-03-06T18:13:49.762Z,15.98
2023-03-06T18:16:16.158Z,15.62
2023-03-06T18:18:44.946Z,14.72
2023-03-06T18:21:15.861Z,14.86
2023-03-06T18:23:42.317Z,14.69
2023-03-06T18:26:16.215Z,14.60
2023-03-06T18:28:46.048Z,13.97
2023-03-06T18:31:12.792Z,14.23
2023-03-06T18:33:39.351Z,14.01
2023-03-06T18:36:06.791Z,13.91
2023-03-06T18:38:34.935Z,14.25
2023-03-06T18:41:01.526Z,14.06
2023-03-06T18:43:27.998Z,14.70
2023-03-06T18:45:54.456Z,15.10
2023-03-06T18:48:21.103Z,14.32
2023-03-06T18:50:47.922Z,15.14
2023-03-06T18:53:17.352Z,15.21
2023-03-06T18:55:43.826Z,14.88
2023-03-06T18:58:10.475Z,14.83
2023-03-06T19:00:37.927Z,15.01
2023-03-06T19:03:06.576Z,15.28
2023-03-06T19:05:35.798Z,15.58
2023-03-06T19:08:02.464Z,14.80
2023-03-06T19:10:29.171Z,15.55
2023-03-06T19:12:56.859Z,15.63
2023-03-06T19:15:25.781Z,15.57
2023-03-06T19:17:52.387Z,15.33
2023-03-06T19:20:19.292Z,15.21
2023-03-06T19:22:45.916Z,15.29
2023-03-06T19:25:12.440Z,15.72
2023-03-06T19:27:38.921Z,15.90
2023-03-06T19:30:05.417Z,15.80
2023-03-06T19:32:32.259Z,15.64
2023-03-06T19:35:01.718Z,15.51
2023-03-06T19:37:28.186Z,16.02
2023-03-06T19:39:55.207Z,16.09
2023-03-06T19:42:21.598Z,15.94
2023-03-06T19:44:47.993Z,16.82
2023-03-06T19:47:14.337Z,16.00
2023-03-06T19:49:40.747Z,16.41
2023-03-06T19:52:09.334Z,16.15
2023-03-06T19:54:35.911Z,17.26
2023-03-06T19:57:02.312Z,16.52
2023-03-06T19:59:28.784Z,16.23
2023-03-06T20:01:55.201Z,16.16
2023-03-06T20:04:21.822Z,16.58
2023-03-06T20:06:48.768Z,16.32
2023-03-06T20:09:15.171Z,16.71
2023-03-06T20:11:41.531Z,16.34
2023-03-06T20:14:08.198Z,16.64
2023-03-06T20:16:34.651Z,17.28
2023-03-06T20:19:01.483Z,16.95
2023-03-06T20:21:28.121Z,16.21
2023-03-06T20:23:56.795Z,16.05
2023-03-06T20:26:23.147Z,15.91
2023-03-06T20:28:50.517Z,16.14
2023-03-06T20:31:18.001Z,16.24
2023-03-06T20:33:44.527Z,16.03
2023-03-06T20:36:10.948Z,16.59
2023-03-06T20:38:37.396Z,16.04
2023-03-06T20:41:03.871Z,15.55
2023-03-06T20:43:30.623Z,15.43
2023-03-06T20:45:57.372Z,15.69
2023-03-06T20:48:24.164Z,16.20
2023-03-06T20:50:50.801Z,16.07
2023-03-06T20:53:17.518Z,15.94
2023-03-06T20:55:44.178Z,16.61
2023-03-06T20:58:10.563Z,16.95
2023-03-06T21:00:36.924Z,16.83
2023-03-06T21:03:03.333Z,16.66
2023-03-06T21:05:29.832Z,16.77
2023-03-06T21:07:56.256Z,16.55
2023-03-06T21:10:23.691Z,16.62
2023-03-06T21:12:52.156Z,16.30
2023-03-06T21:15:18.678Z,16.16
2023-03-06T21:17:49.103Z,16.58
2023-03-06T21:20:15.860Z,16.53
2023-03-06T21:22:42.554Z,16.49
2023-03-06T21:25:09.984Z,16.33
2023-03-06T21:27:36.375Z,17.24
2023-03-06T21:30:02.791Z,16.56
2023-03-06T21:32:29.199Z,16.45
2023-03-06T21:34:55.600Z,16.66
2023-03-06T21:37:21.949Z,16.10
2023-03-06T21:39:48.353Z,16.21
2023-03-06T21:42:14.721Z,16.83
2023-03-06T21:44:41.147Z,16.41
2023-03-06T21:47:07.539Z,15.89
2023-03-06T21:49:33.939Z,15.51
2023-03-06T21:52:00.350Z,16.33
2023-03-06T21:54:26.742Z,16.72
2023-03-06T21:57:00.819Z,16.24
2023-03-06T21:59:27.210Z,16.13
2023-03-06T22:01:53.610Z,16.31
2023-03-06T22:04:20.017Z,16.78
2023-03-06T22:06:46.489Z,16.49
2023-03-06T22:09:12.863Z,16.60
2023-03-06T22:11:39.208Z,16.00
2023-03-06T22:14:05.918Z,15.82
2023-03-06T22:16:32.321Z,16.14
2023-03-06T22:18:58.864Z,16.29
2023-03-06T22:21:26.303Z,15.96
2023-03-06T22:23:52.697Z,16.42
2023-03-06T22:26:21.341Z,16.20
2023-03-06T22:28:48.083Z,16.10
2023-03-06T22:31:14.570Z,16.17
2023-03-06T22:33:40.971Z,16.72
2023-03-06T22:36:07.341Z,17.25
2023-03-06T22:38:37.506Z,17.21
2023-03-06T22:41:04.228Z,17.73
2023-03-06T22:43:31.678Z,18.28
2023-03-06T22:45:58.208Z,17.69
2023-03-06T22:48:31.942Z,17.63
2023-03-06T22:50:58.396Z,16.90
2023-03-06T22:53:24.761Z,17.00
2023-03-06T22:55:54.404Z,16.51
2023-03-06T22:58:20.923Z,17.22
2023-03-06T23:00:48.311Z,17.12
2023-03-06T23:03:14.914Z,17.03
2023-03-06T23:05:41.275Z,16.99
2023-03-06T23:08:08.658Z,16.72
2023-03-06T23:10:35.225Z,16.67
2023-03-06T23:13:01.606Z,15.89
2023-03-06T23:15:28.023Z,16.30
2023-03-06T23:17:54.414Z,16.65
2023-03-06T23:20:22.985Z,15.87
2023-03-06T23:22:50.250Z,16.26
2023-03-06T23:25:16.644Z,15.99
2023-03-06T23:27:43.416Z,15.96
2023-03-06T23:30:09.765Z,16.00
2023-03-06T23:32:36.143Z,16.21
2023-03-06T23:35:03.545Z,16.53
2023-03-06T23:37:29.951Z,15.95
2023-03-06T23:39:56.529Z,15.70
2023-03-06T23:42:22.970Z,15.58
2023-03-06T23:44:51.689Z,15.98
2023-03-06T23:47:18.079Z,15.40
2023-03-06T23:49:44.480Z,15.31
2023-03-06T23:52:10.902Z,15.89
2023-03-06T23:54:37.258Z,15.27
2023-03-06T23:57:03.782Z,16.43
2023-03-06T23:59:30.331Z,16.03
